sensor_id;sensor_type;location;lat;lon;timestamp;P1;durP1;ratioP1;P2;durP2;ratioP2
21494;SDS011;10909;53.590;10.054;2022-08-19T00:01:49;5.75;;;5.28;;
21494;SDS011;10909;53.590;10.054;2022-08-19T00:04:17;6.38;;;5.72;;
21494;SDS011;10909;53.590;10.054;2022-08-19T00:06:44;5.78;;;5.28;;
21494;SDS011;10909;53.590;10.054;2022-08-19T00:09:12;6.75;;;6.07;;
21494;SDS011;10909;53.590;10.054;2022-08-19T00:11:40;7.28;;;6.55;;
21494;SDS011;10909;53.590;10.054;2022-08-19T00:14:07;7.45;;;6.60;;
21494;SDS011;10909;53.590;10.054;2022-08-19T00:16:35;7.97;;;7.18;;
21494;SDS011;10909;53.590;10.054;2022-08-19T00:19:03;8.32;;;7.53;;
21494;SDS011;10909;53.590;10.054;2022-08-19T00:21:29;9.52;;;8.52;;
21494;SDS011;10909;53.590;10.054;2022-08-19T00:23:55;9.30;;;7.53;;
21494;SDS011;10909;53.590;10.054;2022-08-19T00:26:25;10.23;;;8.48;;
21494;SDS011;10909;53.590;10.054;2022-08-19T00:28:52;9.15;;;8.27;;
21494;SDS011;10909;53.590;10.054;2022-08-19T00:31:18;11.23;;;8.68;;
21494;SDS011;10909;53.590;10.054;2022-08-19T00:33:45;9.13;;;7.63;;
21494;SDS011;10909;53.590;10.054;2022-08-19T00:36:12;9.55;;;7.63;;
21494;SDS011;10909;53.590;10.054;2022-08-19T00:38:38;9.13;;;8.20;;
21494;SDS011;10909;53.590;10.054;2022-08-19T00:41:08;9.70;;;7.55;;
21494;SDS011;10909;53.590;10.054;2022-08-19T00:43:39;8.80;;;7.90;;
21494;SDS011;10909;53.590;10.054;2022-08-19T00:46:09;9.43;;;8.52;;
21494;SDS011;10909;53.590;10.054;2022-08-19T00:48:35;8.82;;;7.90;;
21494;SDS011;10909;53.590;10.054;2022-08-19T00:51:01;8.27;;;7.45;;
21494;SDS011;10909;53.590;10.054;2022-08-19T00:53:28;9.68;;;8.07;;
21494;SDS011;10909;53.590;10.054;2022-08-19T00:55:57;9.13;;;7.38;;
21494;SDS011;10909;53.590;10.054;2022-08-19T00:58:26;9.52;;;8.00;;
21494;SDS011;10909;53.590;10.054;2022-08-19T01:00:54;10.50;;;8.93;;
21494;SDS011;10909;53.590;10.054;2022-08-19T01:03:21;10.95;;;8.35;;
21494;SDS011;10909;53.590;10.054;2022-08-19T01:05:48;11.35;;;9.43;;
21494;SDS011;10909;53.590;10.054;2022-08-19T01:08:15;10.88;;;8.85;;
21494;SDS011;10909;53.590;10.054;2022-08-19T01:10:50;9.20;;;8.35;;
21494;SDS011;10909;53.590;10.054;2022-08-19T01:13:22;11.93;;;8.82;;
21494;SDS011;10909;53.590;10.054;2022-08-19T01:16:00;12.68;;;8.68;;
21494;SDS011;10909;53.590;10.054;2022-08-19T01:18:41;10.85;;;7.78;;
21494;SDS011;10909;53.590;10.054;2022-08-19T01:21:12;9.02;;;8.07;;
21494;SDS011;10909;53.590;10.054;2022-08-19T01:23:49;10.32;;;8.40;;
21494;SDS011;10909;53.590;10.054;2022-08-19T01:26:16;9.82;;;8.40;;
21494;SDS011;10909;53.590;10.054;2022-08-19T01:28:45;8.35;;;7.50;;
21494;SDS011;10909;53.590;10.054;2022-08-19T01:31:14;9.80;;;8.35;;
21494;SDS011;10909;53.590;10.054;2022-08-19T01:33:45;8.27;;;7.47;;
21494;SDS011;10909;53.590;10.054;2022-08-19T01:36:16;9.45;;;7.93;;
21494;SDS011;10909;53.590;10.054;2022-08-19T01:38:53;9.20;;;8.30;;
21494;SDS011;10909;53.590;10.054;2022-08-19T01:41:20;9.68;;;7.63;;
21494;SDS011;10909;53.590;10.054;2022-08-19T01:43:48;9.27;;;8.38;;
21494;SDS011;10909;53.590;10.054;2022-08-19T01:46:15;8.30;;;7.40;;
21494;SDS011;10909;53.590;10.054;2022-08-19T01:48:42;9.90;;;7.55;;
21494;SDS011;10909;53.590;10.054;2022-08-19T01:51:20;8.15;;;7.35;;
21494;SDS011;10909;53.590;10.054;2022-08-19T01:53:50;8.57;;;7.47;;
21494;SDS011;10909;53.590;10.054;2022-08-19T01:56:19;8.60;;;7.53;;
21494;SDS011;10909;53.590;10.054;2022-08-19T01:58:47;8.55;;;7.22;;
21494;SDS011;10909;53.590;10.054;2022-08-19T02:01:18;7.90;;;7.10;;
21494;SDS011;10909;53.590;10.054;2022-08-19T02:03:44;9.38;;;7.90;;
21494;SDS011;10909;53.590;10.054;2022-08-19T02:06:19;8.52;;;7.43;;
21494;SDS011;10909;53.590;10.054;2022-08-19T02:08:45;9.05;;;8.13;;
21494;SDS011;10909;53.590;10.054;2022-08-19T02:11:27;8.63;;;7.68;;
21494;SDS011;10909;53.590;10.054;2022-08-19T02:13:56;9.55;;;8.00;;
21494;SDS011;10909;53.590;10.054;2022-08-19T02:16:22;9.20;;;8.20;;
21494;SDS011;10909;53.590;10.054;2022-08-19T02:18:49;12.52;;;8.65;;
21494;SDS011;10909;53.590;10.054;2022-08-19T02:21:24;10.63;;;8.85;;
21494;SDS011;10909;53.590;10.054;2022-08-19T02:23:50;10.05;;;8.45;;
21494;SDS011;10909;53.590;10.054;2022-08-19T02:26:22;11.55;;;8.80;;
21494;SDS011;10909;53.590;10.054;2022-08-19T02:28:48;8.32;;;7.50;;
21494;SDS011;10909;53.590;10.054;2022-08-19T02:31:24;9.23;;;8.05;;
21494;SDS011;10909;53.590;10.054;2022-08-19T02:33:50;11.38;;;8.25;;
21494;SDS011;10909;53.590;10.054;2022-08-19T02:36:35;10.07;;;8.15;;
21494;SDS011;10909;53.590;10.054;2022-08-19T02:39:01;10.75;;;8.70;;
21494;SDS011;10909;53.590;10.054;2022-08-19T02:41:36;9.77;;;8.07;;
21494;SDS011;10909;53.590;10.054;2022-08-19T02:44:02;13.93;;;8.93;;
21494;SDS011;10909;53.590;10.054;2022-08-19T02:46:35;9.45;;;8.30;;
21494;SDS011;10909;53.590;10.054;2022-08-19T02:49:03;9.43;;;8.05;;
21494;SDS011;10909;53.590;10.054;2022-08-19T02:51:37;11.27;;;8.95;;
21494;SDS011;10909;53.590;10.054;2022-08-19T02:54:07;14.70;;;8.95;;
21494;SDS011;10909;53.590;10.054;2022-08-19T02:56:34;11.77;;;9.13;;
21494;SDS011;10909;53.590;10.054;2022-08-19T02:59:02;11.13;;;8.75;;
21494;SDS011;10909;53.590;10.054;2022-08-19T03:01:35;11.82;;;8.93;;
21494;SDS011;10909;53.590;10.054;2022-08-19T03:04:02;13.10;;;8.68;;
21494;SDS011;10909;53.590;10.054;2022-08-19T03:06:30;11.68;;;8.80;;
21494;SDS011;10909;53.590;10.054;2022-08-19T03:08:57;14.40;;;9.80;;
21494;SDS011;10909;53.590;10.054;2022-08-19T03:11:32;12.35;;;9.40;;
21494;SDS011;10909;53.590;10.054;2022-08-19T03:13:59;12.57;;;8.60;;
21494;SDS011;10909;53.590;10.054;2022-08-19T03:16:39;14.60;;;9.00;;
21494;SDS011;10909;53.590;10.054;2022-08-19T03:19:09;13.75;;;9.30;;
21494;SDS011;10909;53.590;10.054;2022-08-19T03:21:34;12.77;;;9.00;;
21494;SDS011;10909;53.590;10.054;2022-08-19T03:24:01;12.63;;;8.90;;
21494;SDS011;10909;53.590;10.054;2022-08-19T03:26:29;13.10;;;9.32;;
21494;SDS011;10909;53.590;10.054;2022-08-19T03:28:55;12.32;;;8.60;;
21494;SDS011;10909;53.590;10.054;2022-08-19T03:31:24;11.50;;;7.63;;
21494;SDS011;10909;53.590;10.054;2022-08-19T03:33:51;13.05;;;8.15;;
21494;SDS011;10909;53.590;10.054;2022-08-19T03:36:35;13.02;;;9.15;;
21494;SDS011;10909;53.590;10.054;2022-08-19T03:39:01;13.50;;;9.23;;
21494;SDS011;10909;53.590;10.054;2022-08-19T03:41:35;13.02;;;8.82;;
21494;SDS011;10909;53.590;10.054;2022-08-19T03:44:03;13.90;;;8.77;;
21494;SDS011;10909;53.590;10.054;2022-08-19T03:46:38;12.32;;;8.77;;
21494;SDS011;10909;53.590;10.054;2022-08-19T03:49:04;15.55;;;9.23;;
21494;SDS011;10909;53.590;10.054;2022-08-19T03:51:34;13.10;;;9.52;;
21494;SDS011;10909;53.590;10.054;2022-08-19T03:54:02;13.50;;;9.00;;
21494;SDS011;10909;53.590;10.054;2022-08-19T03:56:37;14.75;;;9.10;;
21494;SDS011;10909;53.590;10.054;2022-08-19T03:59:04;13.23;;;8.68;;
21494;SDS011;10909;53.590;10.054;2022-08-19T04:01:37;13.82;;;8.30;;
21494;SDS011;10909;53.590;10.054;2022-08-19T04:04:03;11.75;;;8.88;;
21494;SDS011;10909;53.590;10.054;2022-08-19T04:06:38;11.88;;;8.57;;
21494;SDS011;10909;53.590;10.054;2022-08-19T04:09:05;13.93;;;8.80;;
21494;SDS011;10909;53.590;10.054;2022-08-19T04:11:34;11.88;;;8.57;;
21494;SDS011;10909;53.590;10.054;2022-08-19T04:14:05;11.45;;;8.07;;
21494;SDS011;10909;53.590;10.054;2022-08-19T04:16:34;12.95;;;8.20;;
21494;SDS011;10909;53.590;10.054;2022-08-19T04:19:00;11.68;;;9.02;;
21494;SDS011;10909;53.590;10.054;2022-08-19T04:21:28;10.63;;;8.05;;
21494;SDS011;10909;53.590;10.054;2022-08-19T04:23:54;11.15;;;8.07;;
21494;SDS011;10909;53.590;10.054;2022-08-19T04:26:27;10.63;;;7.53;;
21494;SDS011;10909;53.590;10.054;2022-08-19T04:28:59;10.32;;;7.88;;
21494;SDS011;10909;53.590;10.054;2022-08-19T04:31:27;11.15;;;7.93;;
21494;SDS011;10909;53.590;10.054;2022-08-19T04:33:58;13.95;;;8.07;;
21494;SDS011;10909;53.590;10.054;2022-08-19T04:36:35;11.00;;;8.48;;
21494;SDS011;10909;53.590;10.054;2022-08-19T04:39:04;13.30;;;8.55;;
21494;SDS011;10909;53.590;10.054;2022-08-19T04:41:35;9.93;;;8.27;;
21494;SDS011;10909;53.590;10.054;2022-08-19T04:44:20;14.85;;;9.00;;
21494;SDS011;10909;53.590;10.054;2022-08-19T04:46:46;12.75;;;9.05;;
21494;SDS011;10909;53.590;10.054;2022-08-19T04:49:14;13.95;;;10.05;;
21494;SDS011;10909;53.590;10.054;2022-08-19T04:51:42;13.93;;;9.82;;
21494;SDS011;10909;53.590;10.054;2022-08-19T04:54:10;14.30;;;9.82;;
21494;SDS011;10909;53.590;10.054;2022-08-19T04:56:38;14.23;;;11.23;;
21494;SDS011;10909;53.590;10.054;2022-08-19T04:59:04;13.32;;;10.85;;
21494;SDS011;10909;53.590;10.054;2022-08-19T05:01:31;13.35;;;9.48;;
21494;SDS011;10909;53.590;10.054;2022-08-19T05:03:59;12.27;;;9.82;;
21494;SDS011;10909;53.590;10.054;2022-08-19T05:06:34;16.90;;;10.82;;
21494;SDS011;10909;53.590;10.054;2022-08-19T05:09:02;15.20;;;11.35;;
21494;SDS011;10909;53.590;10.054;2022-08-19T05:11:36;12.27;;;10.60;;
21494;SDS011;10909;53.590;10.054;2022-08-19T05:14:04;13.93;;;10.73;;
21494;SDS011;10909;53.590;10.054;2022-08-19T05:16:30;14.57;;;10.57;;
21494;SDS011;10909;53.590;10.054;2022-08-19T05:18:55;16.15;;;10.88;;
21494;SDS011;10909;53.590;10.054;2022-08-19T05:21:40;14.35;;;11.27;;
21494;SDS011;10909;53.590;10.054;2022-08-19T05:24:26;11.75;;;9.95;;
21494;SDS011;10909;53.590;10.054;2022-08-19T05:26:52;12.30;;;10.93;;
21494;SDS011;10909;53.590;10.054;2022-08-19T05:29:22;15.23;;;12.07;;
21494;SDS011;10909;53.590;10.054;2022-08-19T05:31:49;14.57;;;12.25;;
21494;SDS011;10909;53.590;10.054;2022-08-19T05:34:16;13.32;;;11.30;;
21494;SDS011;10909;53.590;10.054;2022-08-19T05:36:43;18.38;;;12.00;;
21494;SDS011;10909;53.590;10.054;2022-08-19T05:39:11;14.02;;;10.98;;
21494;SDS011;10909;53.590;10.054;2022-08-19T05:41:44;15.40;;;11.93;;
21494;SDS011;10909;53.590;10.054;2022-08-19T05:44:12;14.63;;;11.02;;
21494;SDS011;10909;53.590;10.054;2022-08-19T05:46:39;15.27;;;11.48;;
21494;SDS011;10909;53.590;10.054;2022-08-19T05:49:05;13.60;;;10.68;;
21494;SDS011;10909;53.590;10.054;2022-08-19T05:51:49;14.65;;;10.68;;
21494;SDS011;10909;53.590;10.054;2022-08-19T05:54:15;12.80;;;10.85;;
21494;SDS011;10909;53.590;10.054;2022-08-19T05:56:49;15.43;;;11.77;;
21494;SDS011;10909;53.590;10.054;2022-08-19T05:59:16;15.30;;;11.32;;
21494;SDS011;10909;53.590;10.054;2022-08-19T06:01:44;14.40;;;11.00;;
21494;SDS011;10909;53.590;10.054;2022-08-19T06:04:11;13.85;;;10.52;;
21494;SDS011;10909;53.590;10.054;2022-08-19T06:06:38;14.93;;;10.43;;
21494;SDS011;10909;53.590;10.054;2022-08-19T06:09:05;14.80;;;10.93;;
21494;SDS011;10909;53.590;10.054;2022-08-19T06:11:49;10.75;;;9.48;;
21494;SDS011;10909;53.590;10.054;2022-08-19T06:14:21;16.15;;;11.55;;
21494;SDS011;10909;53.590;10.054;2022-08-19T06:16:53;12.57;;;10.00;;
21494;SDS011;10909;53.590;10.054;2022-08-19T06:19:19;12.82;;;10.07;;
21494;SDS011;10909;53.590;10.054;2022-08-19T06:21:47;14.95;;;10.93;;
21494;SDS011;10909;53.590;10.054;2022-08-19T06:24:16;12.30;;;10.88;;
21494;SDS011;10909;53.590;10.054;2022-08-19T06:26:51;9.45;;;7.40;;
21494;SDS011;10909;53.590;10.054;2022-08-19T06:29:19;13.63;;;10.10;;
21494;SDS011;10909;53.590;10.054;2022-08-19T06:34:36;13.15;;;10.07;;
21494;SDS011;10909;53.590;10.054;2022-08-19T06:37:08;12.90;;;10.90;;
21494;SDS011;10909;53.590;10.054;2022-08-19T06:39:36;11.98;;;9.52;;
21494;SDS011;10909;53.590;10.054;2022-08-19T06:42:10;13.48;;;10.70;;
21494;SDS011;10909;53.590;10.054;2022-08-19T06:44:39;15.93;;;10.73;;
21494;SDS011;10909;53.590;10.054;2022-08-19T06:47:07;13.93;;;11.52;;
21494;SDS011;10909;53.590;10.054;2022-08-19T06:49:34;14.10;;;11.23;;
21494;SDS011;10909;53.590;10.054;2022-08-19T06:52:02;13.07;;;10.77;;
21494;SDS011;10909;53.590;10.054;2022-08-19T06:54:29;15.02;;;11.52;;
21494;SDS011;10909;53.590;10.054;2022-08-19T06:56:55;14.00;;;11.63;;
21494;SDS011;10909;53.590;10.054;2022-08-19T06:59:21;14.13;;;11.52;;
21494;SDS011;10909;53.590;10.054;2022-08-19T07:04:39;15.18;;;11.77;;
21494;SDS011;10909;53.590;10.054;2022-08-19T07:07:08;14.18;;;11.63;;
21494;SDS011;10909;53.590;10.054;2022-08-19T07:09:38;13.60;;;11.27;;
21494;SDS011;10909;53.590;10.054;2022-08-19T07:14:59;13.38;;;10.88;;
21494;SDS011;10909;53.590;10.054;2022-08-19T07:17:28;15.20;;;12.18;;
21494;SDS011;10909;53.590;10.054;2022-08-19T07:19:54;16.08;;;12.25;;
21494;SDS011;10909;53.590;10.054;2022-08-19T07:22:20;15.10;;;11.75;;
21494;SDS011;10909;53.590;10.054;2022-08-19T07:24:47;17.58;;;12.90;;
21494;SDS011;10909;53.590;10.054;2022-08-19T07:27:29;15.65;;;12.57;;
21494;SDS011;10909;53.590;10.054;2022-08-19T07:29:54;18.17;;;13.63;;
21494;SDS011;10909;53.590;10.054;2022-08-19T07:32:20;17.73;;;13.43;;
21494;SDS011;10909;53.590;10.054;2022-08-19T07:34:45;19.58;;;13.73;;
21494;SDS011;10909;53.590;10.054;2022-08-19T07:37:24;17.17;;;12.70;;
21494;SDS011;10909;53.590;10.054;2022-08-19T07:39:51;17.10;;;12.80;;
21494;SDS011;10909;53.590;10.054;2022-08-19T07:42:23;14.68;;;12.43;;
21494;SDS011;10909;53.590;10.054;2022-08-19T07:44:49;17.48;;;13.20;;
21494;SDS011;10909;53.590;10.054;2022-08-19T07:47:27;16.98;;;13.52;;
21494;SDS011;10909;53.590;10.054;2022-08-19T07:49:53;17.40;;;12.07;;
21494;SDS011;10909;53.590;10.054;2022-08-19T07:55:09;14.82;;;11.75;;
21494;SDS011;10909;53.590;10.054;2022-08-19T07:57:35;14.02;;;11.75;;
21494;SDS011;10909;53.590;10.054;2022-08-19T08:00:01;15.07;;;11.68;;
21494;SDS011;10909;53.590;10.054;2022-08-19T08:02:34;13.40;;;11.35;;
21494;SDS011;10909;53.590;10.054;2022-08-19T08:05:01;18.33;;;13.07;;
21494;SDS011;10909;53.590;10.054;2022-08-19T08:07:46;16.77;;;12.32;;
21494;SDS011;10909;53.590;10.054;2022-08-19T08:10:30;13.52;;;12.10;;
21494;SDS011;10909;53.590;10.054;2022-08-19T08:12:57;13.30;;;11.15;;
21494;SDS011;10909;53.590;10.054;2022-08-19T08:15:23;13.60;;;11.68;;
21494;SDS011;10909;53.590;10.054;2022-08-19T08:17:48;14.18;;;12.05;;
21494;SDS011;10909;53.590;10.054;2022-08-19T08:20:14;14.20;;;11.63;;
21494;SDS011;10909;53.590;10.054;2022-08-19T08:22:44;14.85;;;11.52;;
21494;SDS011;10909;53.590;10.054;2022-08-19T08:25:29;14.10;;;10.55;;
21494;SDS011;10909;53.590;10.054;2022-08-19T08:27:56;11.82;;;10.57;;
21494;SDS011;10909;53.590;10.054;2022-08-19T08:30:25;12.55;;;10.75;;
21494;SDS011;10909;53.590;10.054;2022-08-19T08:32:52;12.20;;;10.32;;
21494;SDS011;10909;53.590;10.054;2022-08-19T08:35:19;10.07;;;8.45;;
21494;SDS011;10909;53.590;10.054;2022-08-19T08:37:47;11.52;;;9.38;;
21494;SDS011;10909;53.590;10.054;2022-08-19T08:43:38;11.98;;;9.02;;
21494;SDS011;10909;53.590;10.054;2022-08-19T08:46:54;10.43;;;8.25;;
21494;SDS011;10909;53.590;10.054;2022-08-19T08:52:10;8.73;;;7.72;;
21494;SDS011;10909;53.590;10.054;2022-08-19T08:55:00;8.65;;;7.53;;
21494;SDS011;10909;53.590;10.054;2022-08-19T08:57:35;9.57;;;8.25;;
21494;SDS011;10909;53.590;10.054;2022-08-19T09:00:07;9.63;;;8.10;;
21494;SDS011;10909;53.590;10.054;2022-08-19T09:02:39;9.60;;;8.13;;
21494;SDS011;10909;53.590;10.054;2022-08-19T09:05:05;12.30;;;9.05;;
21494;SDS011;10909;53.590;10.054;2022-08-19T09:15:42;9.07;;;8.10;;
21494;SDS011;10909;53.590;10.054;2022-08-19T09:18:14;10.02;;;8.02;;
21494;SDS011;10909;53.590;10.054;2022-08-19T09:20:41;10.50;;;8.10;;
21494;SDS011;10909;53.590;10.054;2022-08-19T09:23:07;8.73;;;7.75;;
21494;SDS011;10909;53.590;10.054;2022-08-19T09:25:33;8.63;;;7.72;;
21494;SDS011;10909;53.590;10.054;2022-08-19T09:27:59;8.95;;;7.75;;
21494;SDS011;10909;53.590;10.054;2022-08-19T09:30:28;10.68;;;7.40;;
21494;SDS011;10909;53.590;10.054;2022-08-19T09:32:56;10.57;;;7.88;;
21494;SDS011;10909;53.590;10.054;2022-08-19T09:35:23;11.45;;;8.45;;
21494;SDS011;10909;53.590;10.054;2022-08-19T09:37:50;12.55;;;9.25;;
21494;SDS011;10909;53.590;10.054;2022-08-19T09:40:17;10.18;;;8.27;;
21494;SDS011;10909;53.590;10.054;2022-08-19T09:42:44;9.75;;;8.32;;
21494;SDS011;10909;53.590;10.054;2022-08-19T09:45:12;10.70;;;7.93;;
21494;SDS011;10909;53.590;10.054;2022-08-19T09:47:39;12.07;;;7.72;;
21494;SDS011;10909;53.590;10.054;2022-08-19T09:50:05;9.77;;;7.72;;
21494;SDS011;10909;53.590;10.054;2022-08-19T09:52:33;8.45;;;7.35;;
21494;SDS011;10909;53.590;10.054;2022-08-19T09:55:02;8.90;;;7.60;;
21494;SDS011;10909;53.590;10.054;2022-08-19T09:57:29;9.70;;;7.95;;
21494;SDS011;10909;53.590;10.054;2022-08-19T09:59:55;10.23;;;8.15;;
21494;SDS011;10909;53.590;10.054;2022-08-19T10:02:22;10.45;;;7.88;;
21494;SDS011;10909;53.590;10.054;2022-08-19T10:04:47;9.32;;;7.93;;
21494;SDS011;10909;53.590;10.054;2022-08-19T10:07:32;9.10;;;7.30;;
21494;SDS011;10909;53.590;10.054;2022-08-19T10:09:59;9.45;;;7.50;;
21494;SDS011;10909;53.590;10.054;2022-08-19T10:12:25;7.75;;;6.80;;
21494;SDS011;10909;53.590;10.054;2022-08-19T10:14:51;10.90;;;7.80;;
21494;SDS011;10909;53.590;10.054;2022-08-19T10:17:19;11.88;;;7.38;;
21494;SDS011;10909;53.590;10.054;2022-08-19T10:19:45;9.95;;;7.80;;
21494;SDS011;10909;53.590;10.054;2022-08-19T10:22:11;8.27;;;6.70;;
21494;SDS011;10909;53.590;10.054;2022-08-19T10:24:38;8.32;;;6.75;;
21494;SDS011;10909;53.590;10.054;2022-08-19T10:27:04;7.65;;;6.60;;
21494;SDS011;10909;53.590;10.054;2022-08-19T10:29:31;9.82;;;6.90;;
21494;SDS011;10909;53.590;10.054;2022-08-19T10:32:00;8.88;;;6.85;;
21494;SDS011;10909;53.590;10.054;2022-08-19T10:34:28;9.38;;;7.07;;
21494;SDS011;10909;53.590;10.054;2022-08-19T10:36:55;8.55;;;6.30;;
21494;SDS011;10909;53.590;10.054;2022-08-19T10:39:22;7.60;;;6.80;;
21494;SDS011;10909;53.590;10.054;2022-08-19T10:41:48;9.35;;;7.32;;
21494;SDS011;10909;53.590;10.054;2022-08-19T10:44:15;8.63;;;7.78;;
21494;SDS011;10909;53.590;10.054;2022-08-19T10:46:43;7.95;;;7.15;;
21494;SDS011;10909;53.590;10.054;2022-08-19T10:49:10;8.95;;;7.97;;
21494;SDS011;10909;53.590;10.054;2022-08-19T10:51:37;10.88;;;8.30;;
21494;SDS011;10909;53.590;10.054;2022-08-19T10:54:21;9.77;;;7.80;;
21494;SDS011;10909;53.590;10.054;2022-08-19T10:56:47;7.60;;;6.80;;
21494;SDS011;10909;53.590;10.054;2022-08-19T10:59:27;9.30;;;7.95;;
21494;SDS011;10909;53.590;10.054;2022-08-19T11:01:54;9.43;;;8.05;;
21494;SDS011;10909;53.590;10.054;2022-08-19T11:04:25;7.70;;;6.90;;
21494;SDS011;10909;53.590;10.054;2022-08-19T11:06:50;8.98;;;8.02;;
21494;SDS011;10909;53.590;10.054;2022-08-19T11:09:18;9.63;;;8.32;;
21494;SDS011;10909;53.590;10.054;2022-08-19T11:11:45;8.90;;;7.45;;
21494;SDS011;10909;53.590;10.054;2022-08-19T11:14:14;9.07;;;7.63;;
21494;SDS011;10909;53.590;10.054;2022-08-19T11:16:43;9.32;;;7.57;;
21494;SDS011;10909;53.590;10.054;2022-08-19T11:19:10;11.48;;;8.40;;
21494;SDS011;10909;53.590;10.054;2022-08-19T11:21:41;9.93;;;8.30;;
21494;SDS011;10909;53.590;10.054;2022-08-19T11:24:13;11.40;;;8.43;;
21494;SDS011;10909;53.590;10.054;2022-08-19T11:26:42;9.80;;;7.35;;
21494;SDS011;10909;53.590;10.054;2022-08-19T11:29:09;11.93;;;8.35;;
21494;SDS011;10909;53.590;10.054;2022-08-19T11:31:38;8.48;;;7.15;;
21494;SDS011;10909;53.590;10.054;2022-08-19T11:34:11;8.68;;;7.60;;
21494;SDS011;10909;53.590;10.054;2022-08-19T11:36:39;8.23;;;7.20;;
21494;SDS011;10909;53.590;10.054;2022-08-19T11:39:08;7.68;;;6.90;;
21494;SDS011;10909;53.590;10.054;2022-08-19T11:41:34;8.27;;;6.80;;
21494;SDS011;10909;53.590;10.054;2022-08-19T11:44:01;9.05;;;7.35;;
21494;SDS011;10909;53.590;10.054;2022-08-19T11:46:29;7.72;;;6.80;;
21494;SDS011;10909;53.590;10.054;2022-08-19T11:48:57;8.80;;;6.80;;
21494;SDS011;10909;53.590;10.054;2022-08-19T11:51:25;7.05;;;6.35;;
21494;SDS011;10909;53.590;10.054;2022-08-19T11:53:53;6.95;;;6.20;;
21494;SDS011;10909;53.590;10.054;2022-08-19T11:56:20;7.65;;;6.05;;
21494;SDS011;10909;53.590;10.054;2022-08-19T11:58:46;10.55;;;6.70;;
21494;SDS011;10909;53.590;10.054;2022-08-19T12:01:14;7.05;;;6.35;;
21494;SDS011;10909;53.590;10.054;2022-08-19T12:03:41;7.18;;;6.40;;
21494;SDS011;10909;53.590;10.054;2022-08-19T12:06:09;10.00;;;6.70;;
21494;SDS011;10909;53.590;10.054;2022-08-19T12:08:38;6.53;;;5.97;;
21494;SDS011;10909;53.590;10.054;2022-08-19T12:11:07;7.90;;;6.55;;
21494;SDS011;10909;53.590;10.054;2022-08-19T12:13:33;6.82;;;6.13;;
21494;SDS011;10909;53.590;10.054;2022-08-19T12:16:07;7.25;;;5.95;;
21494;SDS011;10909;53.590;10.054;2022-08-19T12:18:38;7.05;;;6.38;;
21494;SDS011;10909;53.590;10.054;2022-08-19T12:21:08;7.10;;;6.38;;
21494;SDS011;10909;53.590;10.054;2022-08-19T12:23:36;7.55;;;6.43;;
21494;SDS011;10909;53.590;10.054;2022-08-19T12:26:02;7.40;;;6.63;;
21494;SDS011;10909;53.590;10.054;2022-08-19T12:28:33;6.72;;;6.13;;
21494;SDS011;10909;53.590;10.054;2022-08-19T12:30:59;7.50;;;6.70;;
21494;SDS011;10909;53.590;10.054;2022-08-19T12:33:25;7.07;;;6.20;;
21494;SDS011;10909;53.590;10.054;2022-08-19T12:35:53;6.55;;;5.97;;
21494;SDS011;10909;53.590;10.054;2022-08-19T12:38:19;6.80;;;6.20;;
21494;SDS011;10909;53.590;10.054;2022-08-19T12:40:48;6.88;;;6.20;;
21494;SDS011;10909;53.590;10.054;2022-08-19T12:43:14;6.10;;;5.60;;
21494;SDS011;10909;53.590;10.054;2022-08-19T12:45:41;6.82;;;6.22;;
21494;SDS011;10909;53.590;10.054;2022-08-19T12:48:07;7.05;;;6.18;;
21494;SDS011;10909;53.590;10.054;2022-08-19T12:50:33;6.85;;;6.18;;
21494;SDS011;10909;53.590;10.054;2022-08-19T12:52:59;7.97;;;7.28;;
21494;SDS011;10909;53.590;10.054;2022-08-19T12:55:25;7.53;;;6.82;;
21494;SDS011;10909;53.590;10.054;2022-08-19T12:57:53;6.28;;;5.78;;
21494;SDS011;10909;53.590;10.054;2022-08-19T13:00:19;6.80;;;6.30;;
21494;SDS011;10909;53.590;10.054;2022-08-19T13:02:47;6.85;;;6.32;;
21494;SDS011;10909;53.590;10.054;2022-08-19T13:05:16;5.65;;;5.25;;
21494;SDS011;10909;53.590;10.054;2022-08-19T13:07:48;6.57;;;6.07;;
21494;SDS011;10909;53.590;10.054;2022-08-19T13:10:16;6.13;;;5.63;;
21494;SDS011;10909;53.590;10.054;2022-08-19T13:12:45;6.00;;;5.50;;
21494;SDS011;10909;53.590;10.054;2022-08-19T13:15:13;5.72;;;5.25;;
21494;SDS011;10909;53.590;10.054;2022-08-19T13:17:40;5.72;;;5.22;;
21494;SDS011;10909;53.590;10.054;2022-08-19T13:20:06;6.18;;;5.68;;
21494;SDS011;10909;53.590;10.054;2022-08-19T13:22:34;6.15;;;5.65;;
21494;SDS011;10909;53.590;10.054;2022-08-19T13:25:03;5.43;;;5.03;;
21494;SDS011;10909;53.590;10.054;2022-08-19T13:27:30;5.72;;;5.22;;
21494;SDS011;10909;53.590;10.054;2022-08-19T13:29:56;5.53;;;5.13;;
21494;SDS011;10909;53.590;10.054;2022-08-19T13:32:40;5.80;;;5.30;;
21494;SDS011;10909;53.590;10.054;2022-08-19T13:35:24;5.95;;;5.47;;
21494;SDS011;10909;53.590;10.054;2022-08-19T13:37:50;6.40;;;5.90;;
21494;SDS011;10909;53.590;10.054;2022-08-19T13:40:21;5.53;;;5.13;;
21494;SDS011;10909;53.590;10.054;2022-08-19T13:42:49;5.97;;;5.47;;
21494;SDS011;10909;53.590;10.054;2022-08-19T13:45:21;6.20;;;5.70;;
21494;SDS011;10909;53.590;10.054;2022-08-19T13:47:50;5.95;;;5.45;;
21494;SDS011;10909;53.590;10.054;2022-08-19T13:50:18;5.97;;;5.47;;
21494;SDS011;10909;53.590;10.054;2022-08-19T13:52:45;4.38;;;3.97;;
21494;SDS011;10909;53.590;10.054;2022-08-19T13:55:12;5.25;;;4.85;;
21494;SDS011;10909;53.590;10.054;2022-08-19T13:57:38;5.78;;;5.32;;
21494;SDS011;10909;53.590;10.054;2022-08-19T14:00:05;6.40;;;5.80;;
21494;SDS011;10909;53.590;10.054;2022-08-19T14:02:35;5.70;;;5.28;;
21494;SDS011;10909;53.590;10.054;2022-08-19T14:05:02;6.03;;;5.60;;
21494;SDS011;10909;53.590;10.054;2022-08-19T14:07:29;5.78;;;5.38;;
21494;SDS011;10909;53.590;10.054;2022-08-19T14:09:55;5.95;;;5.45;;
21494;SDS011;10909;53.590;10.054;2022-08-19T14:12:21;5.82;;;5.43;;
21494;SDS011;10909;53.590;10.054;2022-08-19T14:14:47;5.45;;;5.05;;
21494;SDS011;10909;53.590;10.054;2022-08-19T14:17:12;5.82;;;5.32;;
21494;SDS011;10909;53.590;10.054;2022-08-19T14:19:38;5.78;;;5.38;;
21494;SDS011;10909;53.590;10.054;2022-08-19T14:22:03;5.65;;;5.15;;
21494;SDS011;10909;53.590;10.054;2022-08-19T14:24:30;5.95;;;5.50;;
21494;SDS011;10909;53.590;10.054;2022-08-19T14:26:57;6.15;;;5.72;;
21494;SDS011;10909;53.590;10.054;2022-08-19T14:29:23;5.68;;;5.22;;
21494;SDS011;10909;53.590;10.054;2022-08-19T14:31:49;6.80;;;6.20;;
21494;SDS011;10909;53.590;10.054;2022-08-19T14:34:15;6.88;;;6.38;;
21494;SDS011;10909;53.590;10.054;2022-08-19T14:36:41;6.88;;;6.28;;
21494;SDS011;10909;53.590;10.054;2022-08-19T14:39:07;8.27;;;7.57;;
21494;SDS011;10909;53.590;10.054;2022-08-19T14:41:34;6.88;;;6.38;;
21494;SDS011;10909;53.590;10.054;2022-08-19T14:44:01;6.75;;;6.25;;
21494;SDS011;10909;53.590;10.054;2022-08-19T14:46:27;7.05;;;6.43;;
21494;SDS011;10909;53.590;10.054;2022-08-19T14:48:54;6.80;;;6.30;;
21494;SDS011;10909;53.590;10.054;2022-08-19T14:51:21;7.45;;;6.85;;
21494;SDS011;10909;53.590;10.054;2022-08-19T14:53:48;6.68;;;6.18;;
21494;SDS011;10909;53.590;10.054;2022-08-19T14:56:15;6.30;;;5.88;;
21494;SDS011;10909;53.590;10.054;2022-08-19T14:58:46;6.75;;;6.25;;
21494;SDS011;10909;53.590;10.054;2022-08-19T15:01:11;7.00;;;6.50;;
21494;SDS011;10909;53.590;10.054;2022-08-19T15:03:38;6.60;;;6.10;;